createdAt,value
2023-02-17T00:02:27.903Z,101162.63
2023-02-17T00:04:56.494Z,101162.19
2023-02-17T00:07:24.960Z,101159.55
2023-02-17T00:09:53.462Z,101162.30
2023-02-17T00:12:25.955Z,101163.70
2023-02-17T00:14:54.562Z,101161.22
2023-02-17T00:17:22.954Z,101157.23
2023-02-17T00:19:53.917Z,101158.21
2023-02-17T00:22:22.203Z,101160.06
2023-02-17T00:24:50.824Z,101156.05
2023-02-17T00:27:20.056Z,101154.13
2023-02-17T00:29:48.601Z,101154.50
2023-02-17T00:32:17.277Z,101157.16
2023-02-17T00:34:46.188Z,101156.64
2023-02-17T00:37:15.005Z,101155.32
2023-02-17T00:39:44.012Z,101151.55
2023-02-17T00:42:12.403Z,101147.04
2023-02-17T00:44:41.032Z,101146.85
2023-02-17T00:47:09.704Z,101141.83
2023-02-17T00:49:38.226Z,101132.84
2023-02-17T00:52:06.928Z,101134.36
2023-02-17T00:54:36.994Z,101131.31
2023-02-17T00:57:05.425Z,101131.01
2023-02-17T00:59:33.902Z,101128.36
2023-02-17T01:02:03.291Z,101125.30
2023-02-17T01:04:31.946Z,101119.43
2023-02-17T01:07:00.510Z,101118.88
2023-02-17T01:09:29.061Z,101113.77
2023-02-17T01:11:57.404Z,101114.44
2023-02-17T01:14:25.764Z,101116.55
2023-02-17T01:16:54.055Z,101110.48
2023-02-17T01:19:23.199Z,101103.00
2023-02-17T01:21:56.965Z,101094.02
2023-02-17T01:24:25.798Z,101089.55
2023-02-17T01:26:54.489Z,101084.93
2023-02-17T01:29:23.004Z,101082.81
2023-02-17T01:31:52.294Z,101076.18
2023-02-17T01:34:20.527Z,101076.36
2023-02-17T01:36:49.214Z,101061.91
2023-02-17T01:39:17.924Z,101056.16
2023-02-17T01:41:47.149Z,101048.80
2023-02-17T01:44:23.597Z,101048.20
2023-02-17T01:46:54.250Z,101046.72
2023-02-17T01:49:34.810Z,101044.74
2023-02-17T01:52:19.526Z,101051.26
2023-02-17T01:54:49.176Z,101048.52
2023-02-17T01:57:22.019Z,101044.42
2023-02-17T01:59:50.878Z,101041.15
2023-02-17T02:02:19.695Z,101038.63
2023-02-17T02:04:51.681Z,101032.67
2023-02-17T02:07:32.127Z,101032.61
2023-02-17T02:10:01.078Z,101033.27
2023-02-17T02:12:34.202Z,101028.27
2023-02-17T02:15:08.191Z,101027.65
2023-02-17T02:17:36.542Z,101021.72
2023-02-17T02:20:50.984Z,101019.33
2023-02-17T02:23:34.632Z,101027.23
2023-02-17T02:26:19.277Z,101023.02
2023-02-17T02:28:53.763Z,101019.79
2023-02-17T02:31:31.273Z,101014.89
2023-02-17T02:34:15.053Z,101012.14
2023-02-17T02:37:24.113Z,101007.27
2023-02-17T02:39:55.806Z,101004.84
2023-02-17T02:42:26.043Z,101003.08
2023-02-17T02:44:54.583Z,101002.75
2023-02-17T02:47:32.154Z,101004.15
2023-02-17T02:50:00.732Z,100996.27
2023-02-17T02:52:49.010Z,100992.18
2023-02-17T02:55:34.593Z,100988.69
2023-02-17T02:58:23.655Z,100988.25
2023-02-17T03:01:18.849Z,100990.21
2023-02-17T03:04:02.691Z,100990.81
2023-02-17T03:06:44.382Z,100989.59
2023-02-17T03:09:18.413Z,100990.96
2023-02-17T03:11:50.704Z,100988.73
2023-02-17T03:14:23.342Z,100982.16
2023-02-17T03:16:52.598Z,100977.20
2023-02-17T03:19:25.607Z,100975.59
2023-02-17T03:22:10.410Z,100978.08
2023-02-17T03:24:39.033Z,100970.75
2023-02-17T03:27:07.520Z,100965.30
2023-02-17T03:29:35.866Z,100960.75
2023-02-17T03:32:04.774Z,100962.67
2023-02-17T03:34:33.279Z,100955.33
2023-02-17T03:37:02.352Z,100955.29
2023-02-17T03:39:30.536Z,100954.36
2023-02-17T03:41:58.678Z,100955.14
2023-02-17T03:44:27.072Z,100958.02
2023-02-17T03:46:55.603Z,100961.90
2023-02-17T03:49:24.245Z,100954.69
2023-02-17T03:51:55.927Z,100948.87
2023-02-17T03:54:29.031Z,100944.20
2023-02-17T03:56:59.291Z,100942.30
2023-02-17T03:59:28.192Z,100931.88
2023-02-17T04:01:56.876Z,100928.10
2023-02-17T04:04:27.537Z,100926.83
2023-02-17T04:06:55.774Z,100929.83
2023-02-17T04:09:23.738Z,100924.80
2023-02-17T04:11:51.839Z,100920.64
2023-02-17T04:14:20.089Z,100917.17
2023-02-17T04:16:49.548Z,100920.98
2023-02-17T04:19:19.276Z,100916.70
2023-02-17T04:21:49.492Z,100911.59
2023-02-17T04:24:18.111Z,100911.13
2023-02-17T04:26:46.217Z,100909.51
2023-02-17T04:29:14.677Z,100910.44
2023-02-17T04:31:43.101Z,100905.30
2023-02-17T04:34:11.905Z,100905.95
2023-02-17T04:36:40.211Z,100900.80
2023-02-17T04:39:08.759Z,100892.73
2023-02-17T04:41:37.999Z,100890.30
2023-02-17T04:44:06.846Z,100879.17
2023-02-17T04:46:35.473Z,100887.67
2023-02-17T04:49:04.516Z,100892.31
2023-02-17T04:51:32.852Z,100886.88
2023-02-17T04:54:01.425Z,100880.37
2023-02-17T04:56:29.876Z,100881.43
2023-02-17T04:58:59.842Z,100886.23
2023-02-17T05:01:28.324Z,100882.11
2023-02-17T05:03:56.837Z,100881.37
2023-02-17T05:06:25.016Z,100877.05
2023-02-17T05:08:54.569Z,100879.50
2023-02-17T05:11:22.987Z,100877.80
2023-02-17T05:13:51.314Z,100870.74
2023-02-17T05:16:20.289Z,100870.48
2023-02-17T05:18:51.402Z,100869.93
2023-02-17T05:21:22.271Z,100871.75
2023-02-17T05:23:50.398Z,100870.77
2023-02-17T05:26:19.082Z,100869.77
2023-02-17T05:28:47.884Z,100865.21
2023-02-17T05:31:16.899Z,100868.52
2023-02-17T05:33:45.369Z,100868.84
2023-02-17T05:36:14.104Z,100864.11
2023-02-17T05:38:45.904Z,100861.80
2023-02-17T05:41:14.412Z,100853.52
2023-02-17T05:43:42.681Z,100849.54
2023-02-17T05:46:11.274Z,100846.17
2023-02-17T05:48:41.021Z,100841.49
2023-02-17T05:51:09.739Z,100844.33
2023-02-17T05:53:38.332Z,100840.96
2023-02-17T05:56:07.441Z,100840.38
2023-02-17T05:58:36.021Z,100841.13
2023-02-17T06:01:09.397Z,100840.45
2023-02-17T06:03:38.326Z,100844.70
2023-02-17T06:06:07.877Z,100843.39
2023-02-17T06:08:37.213Z,100843.77
2023-02-17T06:11:05.418Z,100844.11
2023-02-17T06:13:34.094Z,100839.33
2023-02-17T06:16:02.716Z,100839.94
2023-02-17T06:18:31.184Z,100833.27
2023-02-17T06:20:59.873Z,100832.61
2023-02-17T06:23:28.652Z,100832.14
2023-02-17T06:25:57.408Z,100830.22
2023-02-17T06:28:26.206Z,100827.40
2023-02-17T06:30:54.820Z,100833.29
2023-02-17T06:33:23.220Z,100836.79
2023-02-17T06:35:52.327Z,100838.27
2023-02-17T06:38:21.084Z,100833.14
2023-02-17T06:40:49.358Z,100832.05
2023-02-17T06:43:18.236Z,100835.89
2023-02-17T06:45:46.784Z,100832.70
2023-02-17T06:48:15.308Z,100829.16
2023-02-17T06:50:51.151Z,100829.10
2023-02-17T06:53:19.335Z,100828.06
2023-02-17T06:55:47.698Z,100821.77
2023-02-17T06:58:15.918Z,100821.08
2023-02-17T07:00:44.211Z,100818.46
2023-02-17T07:03:12.891Z,100820.43
2023-02-17T07:05:41.476Z,100818.28
2023-02-17T07:08:09.778Z,100817.41
2023-02-17T07:10:39.323Z,100813.41
2023-02-17T07:13:07.636Z,100814.06
2023-02-17T07:15:36.049Z,100814.23
2023-02-17T07:18:05.180Z,100815.84
2023-02-17T07:20:34.268Z,100805.52
2023-02-17T07:23:02.646Z,100801.90
2023-02-17T07:25:31.444Z,100801.92
2023-02-17T07:28:05.904Z,100803.31
2023-02-17T07:30:38.717Z,100806.33
2023-02-17T07:33:07.869Z,100811.50
2023-02-17T07:35:42.300Z,100813.36
2023-02-17T07:38:11.762Z,100816.29
2023-02-17T07:40:40.273Z,100814.71
2023-02-17T07:43:08.663Z,100811.34
2023-02-17T07:45:37.221Z,100806.52
2023-02-17T07:48:06.387Z,100805.59
2023-02-17T07:50:35.000Z,100798.50
2023-02-17T07:53:03.764Z,100791.42
2023-02-17T07:55:33.116Z,100791.46
2023-02-17T07:58:01.512Z,100785.66
2023-02-17T08:00:29.879Z,100781.55
2023-02-17T08:02:58.514Z,100776.79
2023-02-17T08:05:27.413Z,100778.31
2023-02-17T08:08:14.269Z,100776.06
2023-02-17T08:11:01.420Z,100765.52
2023-02-17T08:13:31.099Z,100761.59
2023-02-17T08:15:59.669Z,100759.30
2023-02-17T08:18:29.104Z,100751.84
2023-02-17T08:20:59.097Z,100746.67
2023-02-17T08:23:28.197Z,100740.56
2023-02-17T08:25:59.925Z,100740.19
2023-02-17T08:28:28.186Z,100732.37
2023-02-17T08:30:56.453Z,100731.76
2023-02-17T08:44:51.870Z,100722.20
2023-02-17T08:47:20.570Z,100721.11
2023-02-17T08:49:50.534Z,100721.70
2023-02-17T08:52:19.911Z,100718.29
2023-02-17T08:54:50.972Z,100716.33
2023-02-17T08:57:22.205Z,100707.43
2023-02-17T08:59:51.094Z,100708.77
2023-02-17T09:02:20.307Z,100712.39
2023-02-17T09:04:53.521Z,100706.21
2023-02-17T09:07:24.762Z,100708.41
2023-02-17T09:09:53.148Z,100704.01
2023-02-17T09:12:21.249Z,100698.64
2023-02-17T09:14:49.456Z,100692.09
2023-02-17T09:17:18.132Z,100689.69
2023-02-17T09:19:50.094Z,100690.46
2023-02-17T09:22:31.661Z,100689.52
2023-02-17T09:25:03.079Z,100683.28
2023-02-17T09:27:31.954Z,100678.09
2023-02-17T09:30:01.850Z,100673.45
2023-02-17T09:32:31.274Z,100672.00
2023-02-17T09:35:01.889Z,100674.29
2023-02-17T09:37:30.183Z,100675.06
2023-02-17T09:39:58.802Z,100670.36
2023-02-17T09:42:29.111Z,100666.91
2023-02-17T09:45:14.591Z,100657.02
2023-02-17T09:47:51.946Z,100651.88
2023-02-17T09:50:25.804Z,100650.48
2023-02-17T09:53:04.570Z,100655.60
2023-02-17T09:55:56.051Z,100651.20
2023-02-17T09:58:56.154Z,100648.54
2023-02-17T10:01:32.196Z,100637.78
2023-02-17T10:04:19.511Z,100634.32
2023-02-17T10:06:56.600Z,100620.73
2023-02-17T10:09:29.076Z,100614.09
2023-02-17T10:12:10.287Z,100615.52
2023-02-17T10:15:01.886Z,100610.20
2023-02-17T10:17:42.037Z,100605.97
2023-02-17T10:20:18.661Z,100603.77
2023-02-17T10:22:57.987Z,100597.94
2023-02-17T10:25:47.596Z,100591.06
2023-02-17T10:28:39.206Z,100590.05
2023-02-17T10:31:14.034Z,100581.73
2023-02-17T10:34:00.565Z,100576.72
2023-02-17T10:36:34.649Z,100556.66
2023-02-17T10:39:24.978Z,100550.51
2023-02-17T10:41:56.955Z,100542.63
2023-02-17T10:44:27.042Z,100546.85
2023-02-17T10:46:55.808Z,100542.29
2023-02-17T10:49:37.647Z,100529.86
2023-02-17T10:52:15.931Z,100522.52
2023-02-17T10:54:53.776Z,100512.96
2023-02-17T10:57:26.143Z,100500.55
2023-02-17T10:59:55.740Z,100487.20
2023-02-17T11:02:39.578Z,100489.41
2023-02-17T11:05:20.851Z,100480.05
2023-02-17T11:07:58.441Z,100476.91
2023-02-17T11:10:37.571Z,100475.77
2023-02-17T11:13:30.327Z,100471.73
2023-02-17T11:16:00.952Z,100462.58
2023-02-17T11:18:36.501Z,100452.09
2023-02-17T11:21:11.522Z,100446.52
2023-02-17T11:23:56.871Z,100433.02
2023-02-17T11:26:28.802Z,100423.82
2023-02-17T11:29:11.691Z,100421.55
2023-02-17T11:31:40.428Z,100410.55
2023-02-17T11:34:14.388Z,100405.68
2023-02-17T11:36:46.270Z,100402.73
2023-02-17T11:39:20.733Z,100399.03
2023-02-17T11:41:49.651Z,100398.05
2023-02-17T11:44:26.609Z,100393.19
2023-02-17T11:47:27.093Z,100389.15
2023-02-17T11:50:39.075Z,100379.75
2023-02-17T11:53:20.451Z,100367.17
2023-02-17T11:56:07.927Z,100359.55
2023-02-17T11:58:51.780Z,100349.44
2023-02-17T12:01:44.907Z,100343.17
2023-02-17T12:04:19.571Z,100339.54
2023-02-17T12:07:03.155Z,100338.34
2023-02-17T12:09:44.012Z,100329.85
2023-02-17T12:12:53.678Z,100329.13
2023-02-17T12:15:29.627Z,100320.45
2023-02-17T12:18:20.163Z,100311.98
2023-02-17T12:20:51.322Z,100306.01
2023-02-17T12:23:40.357Z,100295.54
2023-02-17T12:26:25.136Z,100284.41
2023-02-17T12:29:08.688Z,100278.82
2023-02-17T12:32:08.098Z,100274.00
2023-02-17T12:34:44.476Z,100268.21
2023-02-17T12:37:21.616Z,100264.89
2023-02-17T12:40:11.949Z,100255.89
2023-02-17T12:42:45.576Z,100245.60
2023-02-17T12:45:19.234Z,100243.02
2023-02-17T12:48:16.292Z,100237.95
2023-02-17T12:50:59.895Z,100225.25
2023-02-17T12:53:50.320Z,100222.43
2023-02-17T12:56:31.693Z,100218.31
2023-02-17T12:59:17.090Z,100212.35
2023-02-17T13:01:59.429Z,100206.11
2023-02-17T13:04:31.738Z,100203.46
2023-02-17T13:07:29.595Z,100200.02
2023-02-17T13:09:58.807Z,100195.95
2023-02-17T13:12:27.128Z,100192.54
2023-02-17T13:15:02.019Z,100190.97
2023-02-17T13:17:52.525Z,100175.35
2023-02-17T13:20:20.689Z,100166.45
2023-02-17T13:22:51.880Z,100159.73
2023-02-17T13:25:32.747Z,100152.46
2023-02-17T13:28:17.720Z,100145.59
2023-02-17T13:30:48.767Z,100126.87
2023-02-17T13:33:20.476Z,100121.48
2023-02-17T13:35:49.266Z,100120.23
2023-02-17T13:38:31.102Z,100109.02
2023-02-17T13:41:06.702Z,100103.63
2023-02-17T13:43:42.402Z,100097.69
2023-02-17T13:46:19.704Z,100081.47
2023-02-17T13:49:05.184Z,100071.82
2023-02-17T13:51:37.640Z,100064.25
2023-02-17T13:54:09.610Z,100055.20
2023-02-17T13:56:38.761Z,100047.64
2023-02-17T13:59:11.821Z,100042.88
2023-02-17T14:01:44.258Z,100040.64
2023-02-17T14:04:38.742Z,100036.81
2023-02-17T14:07:07.030Z,100029.16
2023-02-17T14:09:35.596Z,100016.39
2023-02-17T14:12:08.476Z,100017.65
2023-02-17T14:14:42.303Z,100014.69
2023-02-17T14:17:33.023Z,100002.46
2023-02-17T14:20:01.508Z,99990.20
2023-02-17T14:22:35.924Z,99980.23
2023-02-17T14:25:26.663Z,99974.52
2023-02-17T14:27:56.030Z,99965.77
2023-02-17T14:30:48.162Z,99959.67
2023-02-17T14:33:16.688Z,99960.68
2023-02-17T14:36:00.395Z,99951.55
2023-02-17T14:38:32.814Z,99947.49
2023-02-17T14:41:01.438Z,99942.39
2023-02-17T14:43:33.037Z,99936.84
2023-02-17T14:46:01.596Z,99933.62
2023-02-17T14:48:30.341Z,99924.92
2023-02-17T14:51:01.863Z,99923.04
2023-02-17T14:53:33.506Z,99921.77
2023-02-17T14:56:14.429Z,99919.20
2023-02-17T14:58:43.673Z,99911.70
2023-02-17T15:01:14.330Z,99906.88
2023-02-17T15:03:42.815Z,99905.27
2023-02-17T15:06:23.119Z,99906.16
2023-02-17T15:08:52.362Z,99899.57
2023-02-17T15:11:37.343Z,99899.16
2023-02-17T15:14:08.151Z,99890.95
2023-02-17T15:16:36.800Z,99888.92
2023-02-17T15:19:05.245Z,99881.77
2023-02-17T15:21:35.723Z,99878.30
2023-02-17T15:24:15.117Z,99871.21
2023-02-17T15:26:44.010Z,99863.16
2023-02-17T15:29:16.866Z,99856.56
2023-02-17T15:31:49.309Z,99855.48
2023-02-17T15:34:23.828Z,99845.86
2023-02-17T15:36:52.542Z,99842.23
2023-02-17T15:39:22.609Z,99834.11
2023-02-17T15:41:54.273Z,99829.20
2023-02-17T15:44:31.588Z,99828.87
2023-02-17T15:47:01.042Z,99820.40
2023-02-17T15:49:29.429Z,99813.21
2023-02-17T15:52:01.055Z,99806.66
2023-02-17T15:54:29.844Z,99807.08
2023-02-17T15:57:01.303Z,99806.66
2023-02-17T15:59:31.454Z,99806.27
2023-02-17T16:02:03.730Z,99796.16
2023-02-17T16:04:35.821Z,99785.74
2023-02-17T16:07:04.505Z,99783.91
2023-02-17T16:09:35.512Z,99786.98
2023-02-17T16:12:04.466Z,99790.23
2023-02-17T16:14:40.520Z,99793.75
2023-02-17T16:17:17.326Z,99785.91
2023-02-17T16:19:45.702Z,99782.68
2023-02-17T16:22:14.955Z,99784.30
2023-02-17T16:24:44.056Z,99778.77
2023-02-17T16:27:15.265Z,99776.29
2023-02-17T16:29:44.100Z,99771.05
2023-02-17T16:32:13.391Z,99765.11
2023-02-17T16:34:42.096Z,99762.44
2023-02-17T16:37:16.314Z,99766.25
2023-02-17T16:39:45.301Z,99754.14
2023-02-17T16:42:15.883Z,99758.19
2023-02-17T16:44:44.696Z,99750.65
2023-02-17T16:47:21.438Z,99752.24
2023-02-17T16:49:50.681Z,99753.02
2023-02-17T16:52:27.962Z,99745.02
2023-02-17T16:54:56.187Z,99749.10
2023-02-17T16:57:26.622Z,99749.25
2023-02-17T16:59:56.259Z,99748.63
2023-02-17T17:02:25.260Z,99745.70
2023-02-17T17:04:53.576Z,99737.75
2023-02-17T17:07:22.254Z,99732.66
2023-02-17T17:10:14.812Z,99721.44
2023-02-17T17:12:42.655Z,99724.55
2023-02-17T17:15:11.625Z,99724.34
2023-02-17T17:17:46.123Z,99718.25
2023-02-17T17:20:24.354Z,99717.23
2023-02-17T17:22:53.177Z,99711.69
2023-02-17T17:25:25.350Z,99712.34
2023-02-17T17:27:53.895Z,99714.77
2023-02-17T17:30:25.593Z,99717.77
2023-02-17T17:32:54.673Z,99714.03
2023-02-17T17:35:23.520Z,99711.81
2023-02-17T17:37:51.910Z,99710.58
2023-02-17T17:40:24.873Z,99710.63
2023-02-17T17:42:53.913Z,99704.76
2023-02-17T17:45:24.707Z,99702.09
2023-02-17T17:47:53.433Z,99693.47
2023-02-17T17:50:25.047Z,99692.36
2023-02-17T17:52:54.270Z,99691.38
2023-02-17T17:55:25.567Z,99687.95
2023-02-17T17:57:54.218Z,99684.15
2023-02-17T18:00:30.391Z,99673.95
2023-02-17T18:03:03.068Z,99664.61
2023-02-17T18:05:31.929Z,99662.00
2023-02-17T18:08:02.724Z,99662.36
2023-02-17T18:10:32.814Z,99656.53
2023-02-17T18:13:02.415Z,99647.57
2023-02-17T18:15:31.266Z,99647.37
2023-02-17T18:17:59.707Z,99642.23
2023-02-17T18:20:28.260Z,99636.89
2023-02-17T18:22:56.546Z,99632.23
2023-02-17T18:25:25.561Z,99624.95
2023-02-17T18:27:53.944Z,99633.71
2023-02-17T18:30:23.996Z,99639.23
2023-02-17T18:32:54.960Z,99634.45
2023-02-17T18:35:23.235Z,99644.30
2023-02-17T18:37:54.379Z,99642.45
2023-02-17T18:40:23.475Z,99637.26
2023-02-17T18:42:51.984Z,99635.88
2023-02-17T18:45:20.409Z,99628.89
2023-02-17T18:47:48.921Z,99627.08
2023-02-17T18:50:17.646Z,99636.83
2023-02-17T18:52:48.865Z,99639.73
2023-02-17T18:55:17.591Z,99653.06
2023-02-17T18:57:49.588Z,99664.51
2023-02-17T19:00:19.369Z,99654.80
2023-02-17T19:02:48.614Z,99655.98
2023-02-17T19:05:18.193Z,99670.15
2023-02-17T19:07:46.767Z,99682.17
2023-02-17T19:10:15.596Z,99681.96
2023-02-17T19:12:43.998Z,99690.09
2023-02-17T19:15:19.749Z,99694.77
2023-02-17T19:17:49.053Z,99692.36
2023-02-17T19:20:17.884Z,99674.55
2023-02-17T19:22:49.320Z,99675.80
2023-02-17T19:25:18.363Z,99660.64
2023-02-17T19:27:47.595Z,99654.57
2023-02-17T19:30:16.579Z,99669.23
2023-02-17T19:32:44.954Z,99671.73
2023-02-17T19:35:13.510Z,99692.59
2023-02-17T19:37:41.972Z,99705.11
2023-02-17T19:40:10.909Z,99720.90
2023-02-17T19:42:40.417Z,99721.19
2023-02-17T19:45:10.382Z,99726.67
2023-02-17T19:47:38.845Z,99721.94
2023-02-17T19:50:08.124Z,99721.82
2023-02-17T19:52:37.975Z,99734.08
2023-02-17T19:55:06.600Z,99742.20
2023-02-17T19:57:35.399Z,99748.75
2023-02-17T20:00:05.923Z,99749.23
2023-02-17T20:02:36.816Z,99766.11
2023-02-17T20:05:06.094Z,99764.61
2023-02-17T20:07:35.202Z,99763.55
2023-02-17T20:10:05.939Z,99755.70
2023-02-17T20:12:34.334Z,99751.33
2023-02-17T20:15:03.089Z,99733.54
2023-02-17T20:17:31.949Z,99736.80
2023-02-17T20:20:00.698Z,99734.98
2023-02-17T20:22:29.125Z,99736.70
2023-02-17T20:25:02.821Z,99746.83
2023-02-17T20:27:31.752Z,99741.07
2023-02-17T20:30:01.174Z,99743.54
2023-02-17T20:32:30.437Z,99741.77
2023-02-17T20:34:59.500Z,99747.81
2023-02-17T20:37:29.148Z,99753.25
2023-02-17T20:40:03.981Z,99745.39
2023-02-17T20:42:34.863Z,99752.08
2023-02-17T20:45:04.200Z,99746.92
2023-02-17T20:47:33.052Z,99740.77
2023-02-17T20:50:01.517Z,99732.60
2023-02-17T20:52:30.740Z,99735.71
2023-02-17T20:55:01.900Z,99739.67
2023-02-17T20:57:30.188Z,99728.52
2023-02-17T20:59:59.032Z,99724.23
2023-02-17T21:02:35.115Z,99732.63
2023-02-17T21:05:04.066Z,99738.97
2023-02-17T21:07:33.048Z,99752.29
2023-02-17T21:10:02.120Z,99752.82
2023-02-17T21:12:30.808Z,99760.89
2023-02-17T21:14:59.210Z,99770.94
2023-02-17T21:17:27.652Z,99785.84
2023-02-17T21:19:56.094Z,99781.56
2023-02-17T21:22:24.589Z,99800.06
2023-02-17T21:24:55.892Z,99801.02
2023-02-17T21:27:24.747Z,99812.68
2023-02-17T21:29:53.709Z,99808.92
2023-02-17T21:32:22.090Z,99810.06
2023-02-17T21:34:50.685Z,99804.80
2023-02-17T21:37:19.675Z,99814.52
2023-02-17T21:39:48.194Z,99820.90
2023-02-17T21:42:37.829Z,99811.27
2023-02-17T21:45:10.463Z,99808.20
2023-02-17T21:47:38.977Z,99807.85
2023-02-17T21:50:08.076Z,99808.20
2023-02-17T21:52:37.102Z,99813.45
2023-02-17T21:55:05.771Z,99810.98
2023-02-17T21:57:34.457Z,99810.73
2023-02-17T22:00:06.217Z,99806.70
2023-02-17T22:02:37.582Z,99799.45
2023-02-17T22:05:06.877Z,99810.88
2023-02-17T22:07:35.853Z,99797.90
2023-02-17T22:10:07.991Z,99797.68
2023-02-17T22:12:39.806Z,99799.16
2023-02-17T22:15:08.866Z,99802.11
2023-02-17T22:17:37.347Z,99795.84
2023-02-17T22:20:06.489Z,99797.83
2023-02-17T22:22:35.201Z,99790.42
2023-02-17T22:25:04.038Z,99795.26
2023-02-17T22:27:35.921Z,99796.40
2023-02-17T22:30:06.507Z,99799.92
2023-02-17T22:32:35.912Z,99797.61
2023-02-17T22:35:05.924Z,99793.64
2023-02-17T22:37:34.178Z,99808.98
2023-02-17T22:40:04.434Z,99787.99
2023-02-17T22:42:33.633Z,99795.33
2023-02-17T22:45:01.963Z,99800.34
2023-02-17T22:47:30.626Z,99812.04
2023-02-17T22:50:00.582Z,99811.61
2023-02-17T22:52:29.130Z,99817.00
2023-02-17T22:54:59.357Z,99802.63
2023-02-17T22:57:31.058Z,99806.98
2023-02-17T22:59:59.464Z,99798.92
2023-02-17T23:02:27.891Z,99798.45
2023-02-17T23:04:56.258Z,99798.60
2023-02-17T23:07:24.660Z,99802.84
2023-02-17T23:09:53.294Z,99807.85
2023-02-17T23:12:21.833Z,99810.58
2023-02-17T23:14:50.116Z,99821.74
2023-02-17T23:17:18.430Z,99823.58
2023-02-17T23:19:50.325Z,99816.54
2023-02-17T23:22:20.627Z,99823.09
2023-02-17T23:24:50.551Z,99826.30
2023-02-17T23:27:21.619Z,99827.52
2023-02-17T23:29:49.914Z,99826.28
2023-02-17T23:32:18.447Z,99834.65
2023-02-17T23:34:46.680Z,99827.75
2023-02-17T23:37:15.890Z,99834.89
2023-02-17T23:39:45.104Z,99829.80
2023-02-17T23:42:13.699Z,99829.96
2023-02-17T23:44:42.671Z,99833.95
2023-02-17T23:47:12.337Z,99841.99
2023-02-17T23:49:41.029Z,99843.65
2023-02-17T23:52:11.261Z,99844.81
2023-02-17T23:54:39.659Z,99851.06
2023-02-17T23:57:08.074Z,99851.69
2023-02-17T23:59:40.471Z,99846.53
